createdAt,value
2022-11-29T01:23:56.292Z,131.00
2022-11-29T01:26:25.314Z,120.97
2022-11-29T01:28:53.819Z,120.70
2022-11-29T01:31:26.767Z,113.68
2022-11-29T01:33:55.045Z,110.53
2022-11-29T01:36:22.061Z,74.30
2022-11-29T01:38:48.762Z,66.35
2022-11-29T01:41:19.247Z,97.90
2022-11-29T01:44:01.364Z,71.63
2022-11-29T01:46:31.039Z,95.57
2022-11-29T01:49:03.415Z,63.30
2022-11-29T01:51:30.951Z,63.83
2022-11-29T01:53:58.569Z,52.47
2022-11-29T01:56:25.830Z,37.83
2022-11-29T01:58:52.482Z,48.33
2022-11-29T02:01:19.333Z,37.70
2022-11-29T02:03:46.032Z,32.53
2022-11-29T02:06:13.477Z,29.60
2022-11-29T02:08:42.721Z,32.00
2022-11-29T02:11:34.545Z,31.58
2022-11-29T02:14:16.133Z,35.90
2022-11-29T02:17:32.027Z,26.25
2022-11-29T02:20:25.641Z,32.38
2022-11-29T02:22:58.031Z,32.83
2022-11-29T02:25:40.836Z,32.70
2022-11-29T02:28:22.596Z,31.83
2022-11-29T02:31:01.500Z,29.92
2022-11-29T02:33:52.687Z,29.35
2022-11-29T02:36:34.173Z,30.13
2022-11-29T02:39:38.487Z,41.13
2022-11-29T02:42:32.470Z,49.72
2022-11-29T02:45:33.691Z,39.65
2022-11-29T02:48:44.823Z,50.30
2022-11-29T02:51:22.198Z,56.17
2022-11-29T02:54:16.601Z,43.03
2022-11-29T02:57:13.565Z,58.80
2022-11-29T02:59:52.775Z,57.78
2022-11-29T03:02:35.685Z,53.67
2022-11-29T03:05:25.315Z,64.85
2022-11-29T03:08:10.833Z,64.10
2022-11-29T03:10:50.837Z,49.72
2022-11-29T03:13:27.493Z,72.15
2022-11-29T03:16:04.638Z,76.68
2022-11-29T03:18:57.460Z,58.25
2022-11-29T03:21:41.483Z,67.25
2022-11-29T03:24:28.862Z,96.38
2022-11-29T03:27:02.067Z,81.93
2022-11-29T03:29:55.078Z,76.68
2022-11-29T03:32:58.216Z,87.90
2022-11-29T03:35:48.945Z,88.38
2022-11-29T03:38:28.003Z,87.38
2022-11-29T03:41:23.263Z,127.00
2022-11-29T03:44:15.097Z,58.70
2022-11-29T03:46:54.418Z,63.17
2022-11-29T03:49:28.897Z,99.80
2022-11-29T03:52:14.286Z,65.10
2022-11-29T03:54:59.617Z,119.32
2022-11-29T03:57:40.837Z,60.90
2022-11-29T04:00:11.011Z,60.85
2022-11-29T04:03:17.557Z,67.35
2022-11-29T04:05:59.483Z,64.40
2022-11-29T04:08:49.657Z,79.72
2022-11-29T04:11:16.267Z,67.80
2022-11-29T04:14:22.016Z,79.90
2022-11-29T04:17:20.376Z,66.93
2022-11-29T04:19:46.933Z,59.22
2022-11-29T04:22:25.322Z,81.80
2022-11-29T04:25:25.707Z,88.10
2022-11-29T04:28:26.794Z,73.93
2022-11-29T04:31:18.691Z,72.18
2022-11-29T04:34:11.865Z,96.82
2022-11-29T04:36:56.661Z,96.53
2022-11-29T04:42:20.453Z,111.03
2022-11-29T04:45:22.608Z,105.45
2022-11-29T04:48:20.525Z,64.57
2022-11-29T04:51:42.508Z,108.10
2022-11-29T04:54:09.058Z,89.07
2022-11-29T04:56:54.159Z,107.03
2022-11-29T04:59:59.750Z,70.97
2022-11-29T05:02:48.569Z,84.15
2022-11-29T05:05:30.409Z,91.38
2022-11-29T05:08:30.033Z,93.32
2022-11-29T05:11:11.297Z,109.65
2022-11-29T05:13:48.223Z,100.95
2022-11-29T05:16:21.013Z,104.07
2022-11-29T05:19:08.891Z,130.45
2022-11-29T05:22:00.970Z,93.07
2022-11-29T05:24:58.374Z,106.10
2022-11-29T05:27:24.961Z,90.80
2022-11-29T05:30:04.551Z,83.88
2022-11-29T05:32:50.089Z,110.72
2022-11-29T05:35:49.026Z,99.53
2022-11-29T05:38:34.139Z,139.98
2022-11-29T05:41:20.091Z,119.25
2022-11-29T05:44:07.425Z,90.25
2022-11-29T05:46:57.236Z,77.03
2022-11-29T05:49:45.772Z,104.80
2022-11-29T05:52:22.569Z,77.13
2022-11-29T05:55:13.827Z,109.13
2022-11-29T05:57:58.907Z,81.30
2022-11-29T06:00:32.008Z,74.38
2022-11-29T06:03:07.406Z,79.28
2022-11-29T06:05:48.665Z,88.97
2022-11-29T06:08:41.970Z,99.05
2022-11-29T06:11:27.966Z,73.57
2022-11-29T06:14:08.152Z,85.85
2022-11-29T06:17:01.888Z,71.57
2022-11-29T06:19:45.650Z,69.40
2022-11-29T06:22:20.728Z,81.95
2022-11-29T06:24:53.375Z,96.55
2022-11-29T06:27:50.118Z,87.45
2022-11-29T06:30:24.619Z,76.00
2022-11-29T06:33:29.040Z,66.32
2022-11-29T06:36:13.718Z,94.88
2022-11-29T06:38:41.213Z,61.33
2022-11-29T06:41:18.562Z,67.72
2022-11-29T06:43:45.953Z,85.03
2022-11-29T06:46:37.153Z,84.25
2022-11-29T06:49:11.671Z,96.93
2022-11-29T06:54:40.610Z,85.50
2022-11-29T06:57:18.150Z,93.38
2022-11-29T07:00:03.885Z,102.85
2022-11-29T07:02:51.044Z,112.05
2022-11-29T07:05:25.533Z,65.72
2022-11-29T07:07:56.186Z,93.50
2022-11-29T07:10:24.141Z,105.43
2022-11-29T07:12:51.695Z,80.10
2022-11-29T07:15:21.441Z,78.35
2022-11-29T07:18:09.391Z,73.00
2022-11-29T07:20:48.070Z,91.25
2022-11-29T07:23:26.669Z,88.55
2022-11-29T07:26:19.007Z,66.75
2022-11-29T07:29:21.153Z,86.97
2022-11-29T07:31:56.418Z,75.32
2022-11-29T07:34:47.508Z,66.32
2022-11-29T07:37:29.297Z,73.20
2022-11-29T07:40:03.322Z,58.53
2022-11-29T07:43:05.775Z,55.15
2022-11-29T07:45:36.181Z,38.92
2022-11-29T07:48:03.419Z,70.03
2022-11-29T07:50:30.743Z,53.80
2022-11-29T07:52:57.767Z,38.97
2022-11-29T07:55:26.350Z,23.45
2022-11-29T07:57:53.617Z,24.35
2022-11-29T08:00:21.458Z,38.22
2022-11-29T08:02:49.432Z,41.38
2022-11-29T08:05:16.177Z,42.70
2022-11-29T08:07:43.008Z,27.15
2022-11-29T08:10:13.015Z,35.97
2022-11-29T08:12:50.063Z,40.92
2022-11-29T08:15:18.243Z,29.23
2022-11-29T08:17:44.990Z,27.80
2022-11-29T08:20:13.189Z,68.90
2022-11-29T08:22:40.258Z,30.63
2022-11-29T08:25:08.041Z,22.30
2022-11-29T08:27:36.141Z,20.25
2022-11-29T08:30:03.718Z,32.08
2022-11-29T08:32:30.360Z,25.52
2022-11-29T08:34:57.105Z,34.67
2022-11-29T08:37:23.870Z,24.25
2022-11-29T08:39:50.504Z,28.90
2022-11-29T08:42:17.299Z,25.95
2022-11-29T08:44:44.329Z,24.52
2022-11-29T08:47:30.215Z,23.73
2022-11-29T08:50:02.865Z,23.92
2022-11-29T08:52:55.116Z,20.83
2022-11-29T08:55:24.462Z,27.45
2022-11-29T08:57:52.039Z,35.63
2022-11-29T09:00:21.130Z,34.17
2022-11-29T09:02:48.784Z,34.92
2022-11-29T09:05:15.797Z,21.55
2022-11-29T09:07:42.920Z,26.45
2022-11-29T09:10:10.476Z,32.60
2022-11-29T09:12:38.845Z,38.85
2022-11-29T09:15:09.473Z,25.95
2022-11-29T09:17:36.204Z,27.48
2022-11-29T09:20:03.956Z,26.65
2022-11-29T09:22:31.028Z,36.05
2022-11-29T09:24:57.616Z,35.42
2022-11-29T09:27:24.206Z,34.00
2022-11-29T09:29:50.862Z,28.50
2022-11-29T09:32:17.507Z,25.88
2022-11-29T09:34:44.416Z,30.55
2022-11-29T09:37:11.471Z,31.67
2022-11-29T09:39:38.271Z,21.42
2022-11-29T09:42:31.271Z,17.25
2022-11-29T09:45:26.817Z,30.80
2022-11-29T09:48:23.339Z,37.45
2022-11-29T09:51:08.677Z,30.20
2022-11-29T09:53:52.152Z,37.38
2022-11-29T09:56:37.944Z,29.17
2022-11-29T09:59:12.421Z,30.98
2022-11-29T10:01:53.831Z,27.48
2022-11-29T10:04:27.335Z,26.15
2022-11-29T10:07:13.287Z,29.77
2022-11-29T10:10:08.679Z,30.17
2022-11-29T10:12:46.795Z,25.00
2022-11-29T10:15:29.447Z,70.32
2022-11-29T10:18:02.295Z,25.65
2022-11-29T10:20:41.394Z,25.60
2022-11-29T10:23:37.296Z,27.75
2022-11-29T10:26:08.000Z,29.38
2022-11-29T10:28:37.381Z,21.58
2022-11-29T10:31:33.181Z,32.53
2022-11-29T10:34:02.355Z,40.92
2022-11-29T10:36:34.651Z,30.63
2022-11-29T10:39:11.424Z,39.15
2022-11-29T10:41:41.219Z,35.47
2022-11-29T10:44:14.205Z,33.20
2022-11-29T10:46:41.320Z,32.60
2022-11-29T10:49:14.914Z,25.17
2022-11-29T10:51:41.733Z,53.50
2022-11-29T10:54:34.583Z,24.45
2022-11-29T10:57:02.059Z,26.25
2022-11-29T10:59:30.789Z,46.72
2022-11-29T11:01:58.235Z,21.98
2022-11-29T11:04:29.258Z,26.88
2022-11-29T11:07:02.243Z,33.47
2022-11-29T11:09:40.271Z,51.78
2022-11-29T11:12:19.951Z,27.38
2022-11-29T11:14:47.256Z,31.58
2022-11-29T11:17:26.386Z,29.27
2022-11-29T11:20:18.467Z,26.13
2022-11-29T11:22:54.961Z,25.75
2022-11-29T11:25:40.418Z,21.52
2022-11-29T11:28:26.256Z,30.45
2022-11-29T11:31:00.101Z,38.15
2022-11-29T11:33:36.743Z,28.58
2022-11-29T11:36:27.092Z,28.92
2022-11-29T11:39:12.495Z,28.02
2022-11-29T11:42:00.972Z,30.52
2022-11-29T11:44:49.238Z,27.02
2022-11-29T11:47:31.087Z,26.30
2022-11-29T11:50:00.474Z,22.67
2022-11-29T11:52:29.278Z,36.47
2022-11-29T11:54:59.925Z,29.40
2022-11-29T11:57:28.413Z,26.88
2022-11-29T12:00:00.746Z,31.27
2022-11-29T12:02:38.934Z,33.20
2022-11-29T12:05:15.529Z,25.95
2022-11-29T12:08:13.654Z,25.58
2022-11-29T12:10:41.005Z,28.90
2022-11-29T12:13:19.759Z,33.65
2022-11-29T12:15:49.637Z,25.83
2022-11-29T12:18:30.774Z,34.92
2022-11-29T12:21:08.681Z,35.08
2022-11-29T12:23:52.779Z,26.77
2022-11-29T12:26:56.856Z,29.17
2022-11-29T12:29:22.612Z,31.75
2022-11-29T12:32:26.697Z,25.58
2022-11-29T12:35:24.775Z,31.77
2022-11-29T12:38:06.957Z,25.02
2022-11-29T12:40:49.709Z,28.58
2022-11-29T12:43:38.209Z,28.48
2022-11-29T12:46:25.910Z,23.58
2022-11-29T12:49:17.401Z,29.83
2022-11-29T12:51:56.175Z,28.02
2022-11-29T12:54:41.328Z,25.75
2022-11-29T12:57:15.512Z,29.20
2022-11-29T13:00:04.546Z,24.23
2022-11-29T13:02:42.453Z,23.85
2022-11-29T13:05:27.835Z,27.70
2022-11-29T13:08:00.413Z,29.88
2022-11-29T13:10:54.938Z,25.73
2022-11-29T13:13:44.122Z,31.35
2022-11-29T13:19:36.148Z,24.70
2022-11-29T13:22:18.539Z,30.58
2022-11-29T13:24:49.558Z,30.17
2022-11-29T13:27:21.458Z,28.67
2022-11-29T13:29:48.701Z,27.50
2022-11-29T13:32:53.877Z,23.95
2022-11-29T13:35:35.408Z,26.98
2022-11-29T13:38:19.033Z,30.38
2022-11-29T13:40:56.153Z,30.85
2022-11-29T13:43:32.971Z,23.95
2022-11-29T13:46:19.661Z,26.27
2022-11-29T13:48:48.625Z,23.83
2022-11-29T13:51:33.151Z,27.08
2022-11-29T13:54:25.470Z,24.17
2022-11-29T13:57:03.978Z,36.30
2022-11-29T13:59:32.876Z,26.63
2022-11-29T14:01:59.788Z,31.63
2022-11-29T14:04:45.037Z,25.75
2022-11-29T14:07:16.332Z,26.25
2022-11-29T14:10:03.820Z,28.35
2022-11-29T14:12:49.254Z,30.05
2022-11-29T14:15:27.920Z,31.98
2022-11-29T14:17:58.935Z,26.20
2022-11-29T14:20:25.763Z,27.23
2022-11-29T14:23:04.870Z,28.75
2022-11-29T14:28:23.247Z,25.00
2022-11-29T14:31:01.511Z,27.63
2022-11-29T14:33:43.703Z,24.77
2022-11-29T14:36:17.650Z,20.63
2022-11-29T14:39:11.820Z,24.90
2022-11-29T14:41:52.270Z,19.27
2022-11-29T14:44:24.112Z,24.15
2022-11-29T14:47:07.129Z,24.23
2022-11-29T14:49:42.907Z,24.02
2022-11-29T14:52:15.718Z,24.60
2022-11-29T14:55:08.099Z,22.25
2022-11-29T14:57:50.086Z,27.02
2022-11-29T15:00:48.725Z,25.25
2022-11-29T15:03:30.466Z,23.35
2022-11-29T15:06:00.530Z,24.73
2022-11-29T15:08:35.537Z,22.88
2022-11-29T15:11:11.245Z,29.90
2022-11-29T15:13:48.526Z,24.92
2022-11-29T15:16:27.047Z,23.90
2022-11-29T15:18:59.443Z,27.05
2022-11-29T15:21:53.257Z,26.48
2022-11-29T15:24:25.002Z,24.05
2022-11-29T15:27:02.607Z,24.55
2022-11-29T15:29:30.495Z,27.05
2022-11-29T15:31:59.636Z,28.65
2022-11-29T15:34:32.546Z,25.50
2022-11-29T15:37:02.165Z,21.75
2022-11-29T15:39:30.870Z,26.20
2022-11-29T15:42:11.808Z,24.92
2022-11-29T15:44:45.930Z,24.05
2022-11-29T15:47:26.536Z,23.52
2022-11-29T15:49:54.254Z,26.77
2022-11-29T15:52:41.385Z,22.25
2022-11-29T15:55:12.680Z,22.00
2022-11-29T15:57:42.794Z,27.38
2022-11-29T16:00:20.311Z,25.80
2022-11-29T16:02:52.105Z,28.02
2022-11-29T16:05:23.375Z,22.80
2022-11-29T16:07:55.124Z,29.85
2022-11-29T16:10:49.270Z,29.50
2022-11-29T16:13:31.575Z,22.47
2022-11-29T16:16:10.571Z,24.67
2022-11-29T16:18:41.028Z,20.90
2022-11-29T16:21:21.604Z,25.80
2022-11-29T16:23:48.287Z,24.48
2022-11-29T16:26:19.184Z,29.33
2022-11-29T16:28:48.655Z,29.20
2022-11-29T16:31:20.569Z,26.08
2022-11-29T16:33:49.416Z,26.05
2022-11-29T16:36:22.214Z,24.02
2022-11-29T16:39:00.886Z,33.45
2022-11-29T16:41:33.531Z,22.90
2022-11-29T16:44:03.139Z,32.38
2022-11-29T16:46:32.375Z,38.78
2022-11-29T16:49:02.433Z,26.13
2022-11-29T16:51:43.768Z,26.05
2022-11-29T16:54:19.559Z,25.98
2022-11-29T16:56:46.412Z,23.98
2022-11-29T16:59:17.209Z,21.25
2022-11-29T17:01:53.878Z,32.45
2022-11-29T17:04:23.828Z,30.77
2022-11-29T17:06:51.980Z,36.72
2022-11-29T17:09:23.411Z,46.63
2022-11-29T17:11:50.104Z,35.85
2022-11-29T17:14:16.764Z,35.13
2022-11-29T17:16:43.518Z,41.42
2022-11-29T17:19:12.697Z,88.82
2022-11-29T17:21:39.533Z,32.85
2022-11-29T17:24:06.602Z,21.40
2022-11-29T17:26:33.230Z,34.97
2022-11-29T17:28:59.841Z,66.70
2022-11-29T17:31:26.749Z,49.10
2022-11-29T17:33:53.437Z,56.75
2022-11-29T17:36:21.123Z,55.45
2022-11-29T17:38:48.707Z,97.55
2022-11-29T17:41:18.186Z,74.18
2022-11-29T17:43:44.758Z,137.52
2022-11-29T17:46:17.472Z,96.18
2022-11-29T17:48:47.543Z,105.57
2022-11-29T17:51:43.798Z,74.53
2022-11-29T17:54:04.349Z,79.88
2022-11-29T17:56:31.386Z,67.85
2022-11-29T17:59:00.299Z,108.05
2022-11-29T18:01:32.631Z,76.07
2022-11-29T18:04:01.525Z,73.68
2022-11-29T18:06:33.414Z,96.20
2022-11-29T18:09:01.573Z,91.78
2022-11-29T18:11:46.993Z,68.43
2022-11-29T18:14:20.353Z,47.83
2022-11-29T18:16:47.267Z,54.63
2022-11-29T18:19:17.763Z,59.97
2022-11-29T18:21:44.892Z,45.13
2022-11-29T18:24:12.090Z,30.73
2022-11-29T18:26:39.940Z,38.60
2022-11-29T18:29:07.384Z,22.17
2022-11-29T18:31:36.688Z,11.88
2022-11-29T18:34:07.178Z,17.35
2022-11-29T18:36:44.812Z,12.43
2022-11-29T18:39:14.258Z,22.83
2022-11-29T18:41:45.937Z,11.95
2022-11-29T18:44:14.422Z,19.83
2022-11-29T18:46:43.107Z,16.08
2022-11-29T18:49:12.537Z,14.00
2022-11-29T18:51:40.038Z,22.75
2022-11-29T18:54:06.885Z,12.18
2022-11-29T18:56:35.853Z,16.77
2022-11-29T18:59:10.301Z,10.40
2022-11-29T19:01:41.105Z,12.48
2022-11-29T19:04:13.453Z,16.83
2022-11-29T19:06:40.873Z,15.70
2022-11-29T19:09:12.700Z,13.23
2022-11-29T19:11:40.289Z,12.73
2022-11-29T19:14:12.655Z,12.80
2022-11-29T19:16:42.879Z,16.20
2022-11-29T19:19:10.001Z,17.85
2022-11-29T19:21:36.909Z,12.27
2022-11-29T19:24:07.642Z,13.80
2022-11-29T19:26:34.672Z,10.90
2022-11-29T19:29:01.670Z,11.32
2022-11-29T19:31:28.690Z,14.57
2022-11-29T19:33:56.953Z,13.63
2022-11-29T19:36:26.516Z,16.67
2022-11-29T19:38:55.518Z,10.65
2022-11-29T19:41:28.904Z,14.73
2022-11-29T19:44:01.369Z,22.90
2022-11-29T19:46:30.636Z,17.38
2022-11-29T19:49:00.329Z,16.63
2022-11-29T19:51:28.510Z,15.85
2022-11-29T19:53:58.636Z,30.35
2022-11-29T19:56:26.135Z,14.77
2022-11-29T19:58:53.127Z,23.08
2022-11-29T20:01:23.014Z,28.65
2022-11-29T20:03:50.227Z,16.65
2022-11-29T20:06:18.166Z,15.68
2022-11-29T20:08:45.225Z,12.95
2022-11-29T20:11:20.796Z,14.50
2022-11-29T20:13:53.539Z,17.48
2022-11-29T20:16:20.480Z,16.48
2022-11-29T20:18:51.184Z,19.08
2022-11-29T20:21:19.595Z,14.23
2022-11-29T20:23:46.422Z,14.80
2022-11-29T20:26:17.430Z,18.33
2022-11-29T20:28:44.960Z,12.60
2022-11-29T20:31:17.437Z,11.07
2022-11-29T20:33:45.891Z,10.43
2022-11-29T20:36:49.493Z,9.95
2022-11-29T20:39:42.538Z,9.75
2022-11-29T20:42:24.452Z,12.93
2022-11-29T20:44:59.487Z,10.45
2022-11-29T20:47:51.882Z,10.68
2022-11-29T20:50:27.191Z,12.38
2022-11-29T20:52:56.865Z,13.95
2022-11-29T20:55:23.606Z,11.68
2022-11-29T20:57:50.403Z,10.57
2022-11-29T21:00:18.099Z,12.30
2022-11-29T21:02:44.744Z,13.00
2022-11-29T21:05:11.576Z,12.05
2022-11-29T21:07:38.349Z,10.73
2022-11-29T21:10:05.667Z,12.60
2022-11-29T21:12:32.816Z,15.70
2022-11-29T21:14:59.724Z,12.98
2022-11-29T21:17:31.886Z,13.32
2022-11-29T21:20:00.635Z,12.13
2022-11-29T21:22:48.996Z,12.02
2022-11-29T21:25:37.637Z,19.30
2022-11-29T21:28:10.703Z,27.25
2022-11-29T21:30:37.642Z,16.50
2022-11-29T21:33:04.731Z,12.07
2022-11-29T21:35:31.489Z,22.08
2022-11-29T21:38:00.637Z,18.42
2022-11-29T21:40:28.111Z,18.70
2022-11-29T21:42:54.820Z,17.75
2022-11-29T21:45:21.426Z,16.33
2022-11-29T21:47:48.085Z,12.45
2022-11-29T21:50:14.743Z,16.25
2022-11-29T21:52:41.672Z,12.60
2022-11-29T21:55:08.735Z,15.23
2022-11-29T21:57:36.132Z,10.75
2022-11-29T22:00:03.908Z,14.82
2022-11-29T22:02:30.741Z,16.20
2022-11-29T22:04:57.478Z,12.88
2022-11-29T22:07:24.113Z,13.32
2022-11-29T22:09:50.834Z,9.50
2022-11-29T22:12:33.826Z,9.32
2022-11-29T22:15:01.436Z,15.68
2022-11-29T22:17:28.035Z,11.23
2022-11-29T22:19:54.672Z,14.85
2022-11-29T22:22:21.431Z,10.05
2022-11-29T22:24:48.272Z,14.65
2022-11-29T22:27:17.614Z,12.75
2022-11-29T22:29:44.622Z,13.23
2022-11-29T22:32:11.283Z,11.07
2022-11-29T22:34:38.109Z,14.32
2022-11-29T22:37:04.868Z,13.02
2022-11-29T22:39:31.472Z,17.33
2022-11-29T22:41:58.097Z,12.43
2022-11-29T22:44:24.867Z,10.57
2022-11-29T22:46:51.795Z,12.82
2022-11-29T22:49:18.564Z,13.88
2022-11-29T22:51:45.192Z,10.63
2022-11-29T22:54:15.201Z,12.40
2022-11-29T22:56:43.238Z,9.57
2022-11-29T22:59:10.518Z,12.95
2022-11-29T23:01:39.669Z,12.98
2022-11-29T23:04:08.259Z,11.68
2022-11-29T23:06:37.385Z,9.68
2022-11-29T23:09:07.722Z,14.45
2022-11-29T23:11:34.370Z,14.90
2022-11-29T23:14:01.036Z,10.32
2022-11-29T23:16:29.874Z,14.05
2022-11-29T23:19:00.728Z,11.57
2022-11-29T23:21:33.001Z,11.57
2022-11-29T23:24:00.935Z,8.77
2022-11-29T23:26:36.410Z,16.90
2022-11-29T23:29:04.185Z,14.80
2022-11-29T23:31:31.604Z,15.95
2022-11-29T23:33:58.274Z,14.10
2022-11-29T23:36:25.088Z,12.70
2022-11-29T23:38:51.746Z,14.35
2022-11-29T23:41:18.394Z,14.95
2022-11-29T23:43:45.070Z,10.80
2022-11-29T23:46:20.354Z,14.98
2022-11-29T23:48:47.089Z,16.08
2022-11-29T23:51:14.385Z,20.80
2022-11-29T23:53:42.175Z,11.63
2022-11-29T23:56:13.296Z,16.55
2022-11-29T23:58:40.222Z,28.02
